createdAt,value
2023-04-29T00:02:58.185Z,9.43
2023-04-29T00:07:59.724Z,9.43
2023-04-29T00:13:01.233Z,9.47
2023-04-29T00:18:03.294Z,9.51
2023-04-29T00:23:04.888Z,9.53
2023-04-29T00:28:06.476Z,9.52
2023-04-29T00:33:08.072Z,9.45
2023-04-29T00:38:09.656Z,9.45
2023-04-29T00:43:11.149Z,9.45
2023-04-29T00:48:15.147Z,9.39
2023-04-29T00:53:17.299Z,9.34
2023-04-29T00:58:20.098Z,9.33
2023-04-29T01:03:22.744Z,9.32
2023-04-29T01:08:41.143Z,9.37
2023-04-29T01:13:51.584Z,9.37
2023-04-29T01:19:01.421Z,9.39
2023-04-29T01:24:02.928Z,9.37
2023-04-29T01:29:42.324Z,9.39
2023-04-29T01:34:59.571Z,9.42
2023-04-29T01:40:25.830Z,9.41
2023-04-29T01:45:28.784Z,9.45
2023-04-29T01:50:30.465Z,9.49
2023-04-29T01:55:31.947Z,9.50
2023-04-29T02:00:33.548Z,9.43
2023-04-29T02:05:35.942Z,9.42
2023-04-29T02:10:37.471Z,9.36
2023-04-29T02:15:38.939Z,9.35
2023-04-29T02:20:40.465Z,9.38
2023-04-29T02:25:41.918Z,9.42
2023-04-29T02:30:43.477Z,9.41
2023-04-29T02:35:45.064Z,9.43
2023-04-29T02:40:47.141Z,9.43
2023-04-29T02:45:48.712Z,9.43
2023-04-29T02:50:50.318Z,9.46
2023-04-29T02:55:51.851Z,9.43
2023-04-29T03:00:53.498Z,9.45
2023-04-29T03:05:54.983Z,9.42
2023-04-29T03:10:56.488Z,9.36
2023-04-29T03:15:59.816Z,9.33
2023-04-29T03:21:01.419Z,9.26
2023-04-29T03:26:03.229Z,9.27
2023-04-29T03:31:05.043Z,9.29
2023-04-29T03:36:08.532Z,9.26
2023-04-29T03:41:11.193Z,9.23
2023-04-29T03:46:12.768Z,9.23
2023-04-29T03:51:14.456Z,9.22
2023-04-29T03:56:17.496Z,9.23
2023-04-29T04:01:19.487Z,9.13
2023-04-29T04:06:21.265Z,9.14
2023-04-29T04:11:22.795Z,9.05
2023-04-29T04:16:24.349Z,9.05
2023-04-29T04:21:27.312Z,9.03
2023-04-29T04:26:28.810Z,9.09
2023-04-29T04:31:30.982Z,9.13
2023-04-29T04:36:32.818Z,9.10
2023-04-29T04:41:34.344Z,9.11
2023-04-29T04:46:36.922Z,9.12
2023-04-29T04:51:38.445Z,9.16
2023-04-29T04:56:40.012Z,9.19
2023-04-29T05:01:41.583Z,9.19
2023-04-29T05:06:43.350Z,9.22
2023-04-29T05:11:44.822Z,9.23
2023-04-29T05:16:46.777Z,9.23
2023-04-29T05:21:48.308Z,9.23
2023-04-29T05:26:51.948Z,9.22
2023-04-29T05:31:53.488Z,9.23
2023-04-29T05:36:54.996Z,9.31
2023-04-29T05:41:56.906Z,9.39
2023-04-29T05:46:58.976Z,9.47
2023-04-29T05:52:04.091Z,9.60
2023-04-29T05:57:05.651Z,9.69
2023-04-29T06:02:07.186Z,10.02
2023-04-29T06:07:09.390Z,10.42
2023-04-29T06:12:11.222Z,10.45
2023-04-29T06:17:12.927Z,10.55
2023-04-29T06:22:14.482Z,10.67
2023-04-29T06:27:16.390Z,11.61
2023-04-29T06:32:18.341Z,13.70
2023-04-29T06:37:19.884Z,13.80
2023-04-29T06:42:21.477Z,12.91
2023-04-29T06:47:23.390Z,12.75
2023-04-29T06:52:24.943Z,13.80
2023-04-29T06:57:27.167Z,15.02
2023-04-29T07:02:28.827Z,14.48
2023-04-29T07:07:30.412Z,13.59
2023-04-29T07:12:31.943Z,13.02
2023-04-29T07:17:33.538Z,12.75
2023-04-29T07:22:35.164Z,12.65
2023-04-29T07:27:37.152Z,12.51
2023-04-29T07:32:38.747Z,12.39
2023-04-29T07:37:43.855Z,12.29
2023-04-29T07:42:45.587Z,12.23
2023-04-29T07:47:47.214Z,12.38
2023-04-29T07:52:48.769Z,12.54
2023-04-29T07:57:50.352Z,12.61
2023-04-29T08:02:52.774Z,12.66
2023-04-29T08:07:54.365Z,12.66
2023-04-29T08:12:56.174Z,12.67
2023-04-29T08:17:57.802Z,12.64
2023-04-29T08:23:00.694Z,12.79
2023-04-29T08:28:02.174Z,12.86
2023-04-29T08:33:03.866Z,12.96
2023-04-29T08:38:06.748Z,13.01
2023-04-29T08:43:10.227Z,13.04
2023-04-29T08:48:12.620Z,13.15
2023-04-29T08:53:14.723Z,13.16
2023-04-29T08:58:16.973Z,13.19
2023-04-29T09:03:27.317Z,13.25
2023-04-29T09:08:30.503Z,13.19
2023-04-29T09:13:35.263Z,13.36
2023-04-29T09:18:46.915Z,13.31
2023-04-29T09:23:50.407Z,13.39
2023-04-29T09:29:13.979Z,13.49
2023-04-29T09:34:16.412Z,13.51
2023-04-29T09:39:22.473Z,13.51
2023-04-29T09:44:27.266Z,13.70
2023-04-29T09:49:38.658Z,13.70
2023-04-29T09:54:41.216Z,13.89
2023-04-29T09:59:43.517Z,14.19
2023-04-29T10:04:47.046Z,14.48
2023-04-29T10:09:49.208Z,14.90
2023-04-29T10:14:58.094Z,15.06
2023-04-29T10:20:02.302Z,15.43
2023-04-29T10:25:07.703Z,15.67
2023-04-29T10:30:13.998Z,15.45
2023-04-29T10:35:19.113Z,15.23
2023-04-29T10:40:43.755Z,15.10
2023-04-29T10:45:45.814Z,14.91
2023-04-29T10:50:47.369Z,14.98
2023-04-29T10:56:00.038Z,14.85
2023-04-29T11:01:01.782Z,14.77
2023-04-29T11:06:09.658Z,14.85
2023-04-29T11:11:13.889Z,14.71
2023-04-29T11:16:15.610Z,14.53
2023-04-29T11:21:17.121Z,14.37
2023-04-29T11:26:20.037Z,14.44
2023-04-29T11:31:21.612Z,14.57
2023-04-29T11:36:23.757Z,14.41
2023-04-29T11:41:26.275Z,14.59
2023-04-29T11:46:30.971Z,14.63
2023-04-29T11:51:32.744Z,14.42
2023-04-29T11:56:34.285Z,14.33
2023-04-29T12:01:36.363Z,14.19
2023-04-29T12:06:37.858Z,14.12
2023-04-29T12:11:39.726Z,14.13
2023-04-29T12:16:41.789Z,14.30
2023-04-29T12:21:50.202Z,14.24
2023-04-29T12:26:53.972Z,14.10
2023-04-29T12:31:58.456Z,14.03
2023-04-29T12:37:00.860Z,14.04
2023-04-29T12:42:02.989Z,13.98
2023-04-29T12:47:11.708Z,14.01
2023-04-29T12:52:13.920Z,14.06
2023-04-29T12:57:15.631Z,13.85
2023-04-29T13:02:17.363Z,13.64
2023-04-29T13:07:18.936Z,13.60
2023-04-29T13:12:20.578Z,13.65
2023-04-29T13:17:22.159Z,13.53
2023-04-29T13:22:23.615Z,13.61
2023-04-29T13:27:25.070Z,13.79
2023-04-29T13:32:34.736Z,13.70
2023-04-29T13:37:43.859Z,13.79
2023-04-29T13:42:49.727Z,14.00
2023-04-29T13:48:06.663Z,13.99
2023-04-29T14:03:22.409Z,13.55
2023-04-29T14:08:24.000Z,13.61
2023-04-29T14:13:25.547Z,13.66
2023-04-29T14:18:27.733Z,13.49
2023-04-29T14:23:29.208Z,13.40
2023-04-29T14:28:30.716Z,13.42
2023-04-29T14:33:32.377Z,13.32
2023-04-29T14:38:33.931Z,13.22
2023-04-29T14:43:35.810Z,13.08
2023-04-29T14:48:37.338Z,12.93
2023-04-29T14:53:39.163Z,12.88
2023-04-29T14:58:41.054Z,12.83
2023-04-29T15:03:45.054Z,12.46
2023-04-29T15:08:47.009Z,12.43
2023-04-29T15:13:48.621Z,12.47
2023-04-29T15:18:50.160Z,12.21
2023-04-29T15:23:51.708Z,12.00
2023-04-29T15:28:53.471Z,12.08
2023-04-29T15:33:55.514Z,11.89
2023-04-29T15:38:57.351Z,11.97
2023-04-29T15:43:58.966Z,11.96
2023-04-29T15:49:01.064Z,11.62
2023-04-29T15:54:02.615Z,11.51
2023-04-29T15:59:04.221Z,11.66
2023-04-29T16:04:05.832Z,11.67
2023-04-29T16:09:07.520Z,11.73
2023-04-29T16:14:08.984Z,11.69
2023-04-29T16:19:10.555Z,11.51
2023-04-29T16:24:12.820Z,11.50
2023-04-29T16:29:14.302Z,11.45
2023-04-29T16:34:15.815Z,11.30
2023-04-29T16:39:17.275Z,11.23
2023-04-29T16:44:18.804Z,11.23
2023-04-29T16:49:26.395Z,11.29
2023-04-29T16:54:27.832Z,11.12
2023-04-29T16:59:29.306Z,11.06
2023-04-29T17:04:33.832Z,10.83
2023-04-29T17:09:35.611Z,10.73
2023-04-29T17:14:39.782Z,10.87
2023-04-29T17:19:41.781Z,10.86
2023-04-29T17:24:46.018Z,10.80
2023-04-29T17:29:47.570Z,10.78
2023-04-29T17:34:49.101Z,10.85
2023-04-29T17:39:53.038Z,10.74
2023-04-29T17:44:54.680Z,10.69
2023-04-29T17:49:57.314Z,10.70
2023-04-29T17:54:59.880Z,10.76
2023-04-29T18:00:01.389Z,10.67
2023-04-29T18:05:04.784Z,10.62
2023-04-29T18:10:07.055Z,10.58
2023-04-29T18:15:09.718Z,10.47
2023-04-29T18:20:12.824Z,10.35
2023-04-29T18:25:14.354Z,10.29
2023-04-29T18:30:15.846Z,10.24
2023-04-29T18:35:17.392Z,10.22
2023-04-29T18:40:18.986Z,10.24
2023-04-29T18:45:20.695Z,10.19
2023-04-29T18:50:22.201Z,10.11
2023-04-29T18:55:24.917Z,10.05
2023-04-29T19:00:27.043Z,10.02
2023-04-29T19:05:28.713Z,9.96
2023-04-29T19:10:30.585Z,9.92
2023-04-29T19:15:32.533Z,9.88
2023-04-29T19:20:34.418Z,9.87
2023-04-29T19:25:36.038Z,9.82
2023-04-29T19:30:37.715Z,9.69
2023-04-29T19:35:39.276Z,9.61
2023-04-29T19:40:40.885Z,9.62
2023-04-29T19:45:42.643Z,9.56
2023-04-29T19:50:44.227Z,9.52
2023-04-29T19:55:45.734Z,9.51
2023-04-29T20:00:47.332Z,9.41
2023-04-29T20:05:49.329Z,9.37
2023-04-29T20:10:50.867Z,9.32
2023-04-29T20:15:54.123Z,9.27
2023-04-29T20:20:56.281Z,9.20
2023-04-29T20:25:58.317Z,9.16
2023-04-29T20:30:59.923Z,9.18
2023-04-29T20:36:06.417Z,9.15
2023-04-29T20:41:08.048Z,9.10
2023-04-29T20:46:11.806Z,9.08
2023-04-29T20:51:13.622Z,9.08
2023-04-29T20:56:16.205Z,8.98
2023-04-29T21:01:19.430Z,8.98
2023-04-29T21:06:21.025Z,8.94
2023-04-29T21:11:22.573Z,8.85
2023-04-29T21:16:24.204Z,8.88
2023-04-29T21:21:26.106Z,8.84
2023-04-29T21:26:27.571Z,8.84
2023-04-29T21:31:30.460Z,8.77
2023-04-29T21:36:32.077Z,8.70
2023-04-29T21:41:37.454Z,8.65
2023-04-29T21:46:39.534Z,8.63
2023-04-29T21:51:41.254Z,8.59
2023-04-29T21:56:42.771Z,8.58
2023-04-29T22:01:47.279Z,8.49
2023-04-29T22:06:48.848Z,8.47
2023-04-29T22:11:50.337Z,8.44
2023-04-29T22:16:51.990Z,8.37
2023-04-29T22:21:53.528Z,8.27
2023-04-29T22:26:55.057Z,8.19
2023-04-29T22:31:56.706Z,8.10
2023-04-29T22:36:58.324Z,8.02
2023-04-29T22:41:59.874Z,7.93
2023-04-29T22:47:01.719Z,7.87
2023-04-29T22:52:03.205Z,7.81
2023-04-29T23:19:56.222Z,7.57
2023-04-29T23:24:57.968Z,7.67
2023-04-29T23:30:00.218Z,7.71
2023-04-29T23:35:01.751Z,7.77
2023-04-29T23:40:04.751Z,7.77
2023-04-29T23:45:06.842Z,7.82
2023-04-29T23:50:08.859Z,7.90
2023-04-29T23:55:10.514Z,7.92
